createdAt,value
2018-09-04T00:00:19.145Z,10.00
2018-09-04T00:02:48.050Z,11.20
2018-09-04T00:05:16.962Z,11.00
2018-09-04T00:07:45.929Z,11.57
2018-09-04T00:10:15.606Z,10.23
2018-09-04T00:12:44.582Z,11.53
2018-09-04T00:15:13.502Z,11.20
2018-09-04T00:17:42.397Z,12.15
2018-09-04T00:20:11.295Z,12.15
2018-09-04T00:22:40.198Z,12.50
2018-09-04T00:25:09.082Z,12.45
2018-09-04T00:27:37.990Z,13.60
2018-09-04T00:30:07.239Z,11.80
2018-09-04T00:32:36.141Z,11.22
2018-09-04T00:35:05.155Z,11.63
2018-09-04T00:37:34.078Z,12.23
2018-09-04T00:40:03.069Z,12.65
2018-09-04T00:42:32.107Z,11.85
2018-09-04T00:45:01.081Z,13.65
2018-09-04T00:47:30.226Z,12.98
2018-09-04T00:49:59.128Z,12.58
2018-09-04T00:52:28.045Z,12.98
2018-09-04T00:54:56.935Z,9.60
2018-09-04T00:57:25.840Z,11.50
2018-09-04T00:59:54.710Z,12.75
2018-09-04T01:02:23.623Z,10.10
2018-09-04T01:04:52.518Z,11.48
2018-09-04T01:07:21.426Z,12.33
2018-09-04T01:09:50.325Z,12.23
2018-09-04T01:12:19.237Z,13.60
2018-09-04T01:14:48.130Z,12.58
2018-09-04T01:17:17.047Z,11.63
2018-09-04T01:19:47.566Z,11.30
2018-09-04T01:22:16.478Z,12.65
2018-09-04T01:24:45.370Z,12.88
2018-09-04T01:27:14.259Z,13.25
2018-09-04T01:29:43.145Z,12.70
2018-09-04T01:32:12.066Z,12.70
2018-09-04T01:34:40.975Z,13.13
2018-09-04T01:37:09.893Z,13.10
2018-09-04T01:39:38.826Z,13.43
2018-09-04T01:42:07.772Z,13.95
2018-09-04T01:44:36.649Z,14.38
2018-09-04T01:47:05.831Z,13.98
2018-09-04T01:49:35.902Z,15.35
2018-09-04T01:52:04.863Z,13.65
2018-09-04T01:54:33.763Z,14.63
2018-09-04T01:57:02.678Z,14.43
2018-09-04T01:59:31.627Z,14.40
2018-09-04T02:02:00.566Z,16.00
2018-09-04T02:04:29.461Z,15.25
2018-09-04T02:06:58.401Z,16.07
2018-09-04T02:09:27.630Z,15.65
2018-09-04T02:11:56.706Z,15.40
2018-09-04T02:14:25.602Z,15.10
2018-09-04T02:16:54.487Z,16.57
2018-09-04T02:19:23.374Z,14.90
2018-09-04T02:21:52.265Z,15.60
2018-09-04T02:24:21.145Z,16.12
2018-09-04T02:26:50.063Z,15.68
2018-09-04T02:29:18.952Z,16.48
2018-09-04T02:31:47.850Z,13.22
2018-09-04T02:34:16.731Z,16.10
2018-09-04T02:36:45.626Z,14.93
2018-09-04T02:39:21.214Z,14.10
2018-09-04T02:41:50.106Z,17.12
2018-09-04T02:44:19.022Z,13.78
2018-09-04T02:46:47.945Z,15.10
2018-09-04T02:49:16.821Z,15.25
2018-09-04T02:51:45.719Z,14.55
2018-09-04T02:54:14.614Z,13.75
2018-09-04T02:56:43.514Z,16.00
2018-09-04T02:59:12.413Z,15.80
2018-09-04T03:01:41.311Z,14.38
2018-09-04T03:04:10.190Z,15.18
2018-09-04T03:06:39.081Z,14.40
2018-09-04T03:09:08.023Z,15.95
2018-09-04T03:11:36.909Z,15.90
2018-09-04T03:14:05.810Z,15.05
2018-09-04T03:16:34.748Z,17.48
2018-09-04T03:19:03.681Z,14.13
2018-09-04T03:21:32.603Z,17.10
2018-09-04T03:24:01.538Z,14.90
2018-09-04T03:26:30.455Z,15.18
2018-09-04T03:28:59.366Z,17.80
2018-09-04T03:31:28.246Z,16.00
2018-09-04T03:33:57.146Z,15.55
2018-09-04T03:36:26.058Z,16.95
2018-09-04T03:38:54.998Z,17.20
2018-09-04T03:41:23.882Z,17.02
2018-09-04T03:43:52.869Z,16.02
2018-09-04T03:46:21.714Z,17.52
2018-09-04T03:48:50.627Z,17.23
2018-09-04T03:51:19.562Z,17.90
2018-09-04T03:53:48.458Z,18.40
2018-09-04T03:56:17.333Z,18.90
2018-09-04T03:58:46.219Z,19.30
2018-09-04T04:01:15.150Z,18.12
2018-09-04T04:03:44.012Z,18.00
2018-09-04T04:06:12.906Z,17.70
2018-09-04T04:08:41.798Z,17.92
2018-09-04T04:11:10.731Z,17.55
2018-09-04T04:13:39.636Z,19.02
2018-09-04T04:16:08.569Z,20.68
2018-09-04T04:18:37.466Z,18.95
2018-09-04T04:21:06.375Z,18.20
2018-09-04T04:23:35.285Z,17.95
2018-09-04T04:26:04.318Z,20.45
2018-09-04T04:28:33.233Z,18.57
2018-09-04T04:31:02.163Z,17.62
2018-09-04T04:33:31.098Z,20.25
2018-09-04T04:36:00.012Z,16.50
2018-09-04T04:38:28.910Z,19.70
2018-09-04T04:40:57.812Z,17.82
2018-09-04T04:43:26.718Z,20.00
2018-09-04T04:45:55.594Z,19.30
2018-09-04T04:48:24.536Z,19.67
2018-09-04T04:50:53.370Z,18.42
2018-09-04T04:53:22.309Z,19.55
2018-09-04T04:55:51.178Z,17.48
2018-09-04T04:58:20.088Z,19.48
2018-09-04T05:00:48.978Z,16.95
2018-09-04T05:03:17.887Z,17.90
2018-09-04T05:05:46.786Z,18.50
2018-09-04T05:08:15.692Z,17.48
2018-09-04T05:10:44.605Z,18.75
2018-09-04T05:13:13.521Z,18.35
2018-09-04T05:15:42.385Z,17.60
2018-09-04T05:18:11.288Z,17.30
2018-09-04T05:20:40.197Z,17.02
2018-09-04T05:23:09.090Z,18.70
2018-09-04T05:25:37.970Z,20.00
2018-09-04T05:28:06.862Z,19.15
2018-09-04T05:30:36.658Z,18.70
2018-09-04T05:33:11.050Z,18.35
2018-09-04T05:35:45.490Z,21.15
2018-09-04T05:38:14.399Z,19.77
2018-09-04T05:40:43.278Z,19.62
2018-09-04T05:43:15.089Z,19.95
2018-09-04T05:45:44.015Z,19.67
2018-09-04T05:48:14.746Z,19.00
2018-09-04T05:50:43.665Z,19.10
2018-09-04T05:53:12.762Z,20.62
2018-09-04T05:55:41.770Z,22.17
2018-09-04T05:58:10.668Z,21.77
2018-09-04T06:00:43.849Z,21.77
2018-09-04T06:03:12.776Z,20.20
2018-09-04T06:05:41.665Z,20.20
2018-09-04T06:08:10.554Z,22.25
2018-09-04T06:10:39.498Z,21.12
2018-09-04T06:13:08.406Z,20.80
2018-09-04T06:15:37.298Z,21.82
2018-09-04T06:18:06.222Z,19.57
2018-09-04T06:20:35.106Z,22.75
2018-09-04T06:23:04.043Z,21.90
2018-09-04T06:25:32.971Z,22.48
2018-09-04T06:28:02.089Z,21.52
2018-09-04T06:30:31.065Z,23.20
2018-09-04T06:32:59.995Z,20.97
2018-09-04T06:35:28.903Z,24.07
2018-09-04T06:37:57.780Z,22.10
2018-09-04T06:40:26.670Z,21.35
2018-09-04T06:42:55.561Z,21.75
2018-09-04T06:45:24.441Z,22.35
2018-09-04T06:47:53.350Z,21.82
2018-09-04T06:50:22.333Z,22.35
2018-09-04T06:52:51.226Z,22.30
2018-09-04T06:55:20.126Z,22.32
2018-09-04T06:57:49.033Z,21.87
2018-09-04T07:00:17.914Z,23.12
2018-09-04T07:02:46.903Z,22.93
2018-09-04T07:05:15.781Z,23.85
2018-09-04T07:07:44.666Z,22.90
2018-09-04T07:10:13.582Z,23.42
2018-09-04T07:12:42.483Z,21.57
2018-09-04T07:15:11.397Z,23.20
2018-09-04T07:17:40.286Z,23.60
2018-09-04T07:20:09.229Z,22.85
2018-09-04T07:22:38.145Z,24.27
2018-09-04T07:25:07.030Z,23.25
2018-09-04T07:27:35.963Z,21.27
2018-09-04T07:30:05.418Z,24.30
2018-09-04T07:32:34.390Z,23.80
2018-09-04T07:35:03.333Z,22.77
2018-09-04T07:37:32.246Z,24.37
2018-09-04T07:40:01.150Z,21.02
2018-09-04T07:42:30.067Z,23.42
2018-09-04T07:44:59.002Z,22.65
2018-09-04T07:47:27.926Z,23.57
2018-09-04T07:49:56.838Z,23.07
2018-09-04T07:52:25.781Z,23.90
2018-09-04T07:54:54.679Z,23.05
2018-09-04T07:57:23.558Z,23.10
2018-09-04T07:59:52.522Z,23.15
2018-09-04T08:02:23.619Z,21.48
2018-09-04T08:04:52.598Z,22.52
2018-09-04T08:07:21.546Z,22.02
2018-09-04T08:09:50.477Z,23.18
2018-09-04T08:12:19.382Z,23.10
2018-09-04T08:14:48.434Z,23.05
2018-09-04T08:17:17.477Z,23.20
2018-09-04T08:19:46.484Z,23.52
2018-09-04T08:22:15.387Z,22.17
2018-09-04T08:24:44.315Z,22.42
2018-09-04T08:27:13.208Z,22.05
2018-09-04T08:29:42.099Z,21.93
2018-09-04T08:32:10.990Z,22.02
2018-09-04T08:34:39.905Z,21.20
2018-09-04T08:37:08.792Z,23.90
2018-09-04T08:39:37.731Z,21.73
2018-09-04T08:42:06.742Z,25.43
2018-09-04T08:44:35.811Z,24.23
2018-09-04T08:47:04.911Z,23.05
2018-09-04T08:49:33.829Z,21.42
2018-09-04T08:52:02.731Z,24.35
2018-09-04T08:54:31.715Z,23.25
2018-09-04T08:57:00.670Z,24.60
2018-09-04T08:59:30.071Z,23.00
2018-09-04T09:01:59.143Z,25.43
2018-09-04T09:04:28.620Z,25.23
2018-09-04T09:06:57.498Z,24.98
2018-09-04T09:09:26.410Z,23.60
2018-09-04T09:11:55.342Z,25.75
2018-09-04T09:14:24.234Z,25.37
2018-09-04T09:16:53.126Z,23.80
2018-09-04T09:19:22.024Z,24.70
2018-09-04T09:21:50.907Z,25.37
2018-09-04T09:24:19.810Z,24.75
2018-09-04T09:26:48.690Z,23.50
2018-09-04T09:29:17.606Z,25.68
2018-09-04T09:31:46.507Z,25.72
2018-09-04T09:34:15.402Z,22.70
2018-09-04T09:36:44.390Z,25.10
2018-09-04T09:39:13.214Z,24.18
2018-09-04T09:41:42.229Z,25.17
2018-09-04T09:44:11.138Z,24.17
2018-09-04T09:46:40.039Z,24.07
2018-09-04T09:49:08.954Z,22.87
2018-09-04T09:51:37.838Z,26.17
2018-09-04T09:54:06.936Z,21.60
2018-09-04T09:56:35.798Z,24.77
2018-09-04T09:59:04.710Z,25.50
2018-09-04T10:01:38.986Z,25.23
2018-09-04T10:04:08.654Z,22.70
2018-09-04T10:06:37.527Z,21.77
2018-09-04T10:09:07.675Z,23.70
2018-09-04T10:11:36.666Z,22.20
2018-09-04T10:14:05.671Z,20.63
2018-09-04T10:16:34.610Z,21.50
2018-09-04T10:19:03.566Z,22.13
2018-09-04T10:21:32.471Z,23.00
2018-09-04T10:24:01.395Z,21.87
2018-09-04T10:26:30.377Z,21.03
2018-09-04T10:28:59.288Z,23.33
2018-09-04T10:31:28.192Z,22.63
2018-09-04T10:33:57.094Z,22.83
2018-09-04T10:36:26.017Z,21.87
2018-09-04T10:39:00.238Z,22.80
2018-09-04T10:41:29.150Z,22.53
2018-09-04T10:43:58.224Z,24.00
2018-09-04T10:46:27.330Z,22.62
2018-09-04T10:48:56.223Z,23.33
2018-09-04T10:51:25.119Z,21.60
2018-09-04T10:53:54.021Z,23.73
2018-09-04T10:56:23.062Z,22.23
2018-09-04T10:58:51.982Z,22.67
2018-09-04T11:01:20.969Z,23.97
2018-09-04T11:03:50.462Z,23.00
2018-09-04T11:06:19.395Z,23.80
2018-09-04T11:08:49.262Z,22.60
2018-09-04T11:11:20.296Z,20.70
2018-09-04T11:13:49.198Z,22.43
2018-09-04T11:16:18.102Z,21.03
2018-09-04T11:18:46.990Z,22.07
2018-09-04T11:21:15.874Z,21.30
2018-09-04T11:23:44.789Z,23.00
2018-09-04T11:26:13.702Z,21.53
2018-09-04T11:28:45.930Z,20.27
2018-09-04T11:31:14.938Z,20.73
2018-09-04T11:33:45.434Z,21.07
2018-09-04T11:36:15.587Z,19.93
2018-09-04T11:38:44.486Z,24.00
2018-09-04T11:41:13.394Z,21.10
2018-09-04T11:43:42.294Z,21.80
2018-09-04T11:46:11.245Z,20.17
2018-09-04T11:48:44.194Z,20.57
2018-09-04T11:51:13.102Z,22.90
2018-09-04T11:53:41.983Z,19.60
2018-09-04T11:56:10.913Z,18.93
2018-09-04T11:58:39.794Z,20.13
2018-09-04T12:01:12.087Z,20.23
2018-09-04T12:03:41.031Z,18.70
2018-09-04T12:06:10.077Z,17.63
2018-09-04T12:08:38.934Z,20.03
2018-09-04T12:11:07.882Z,19.30
2018-09-04T12:13:36.850Z,17.80
2018-09-04T12:16:05.777Z,19.03
2018-09-04T12:18:34.722Z,17.57
2018-09-04T12:21:06.260Z,16.23
2018-09-04T12:23:35.814Z,19.27
2018-09-04T12:26:06.028Z,18.10
2018-09-04T12:28:35.081Z,18.20
2018-09-04T12:31:04.406Z,17.47
2018-09-04T12:33:33.318Z,17.07
2018-09-04T12:36:02.273Z,16.73
2018-09-04T12:38:32.626Z,16.23
2018-09-04T12:41:06.928Z,14.20
2018-09-04T12:43:37.441Z,15.13
2018-09-04T12:46:06.869Z,13.70
2018-09-04T12:48:35.865Z,15.60
2018-09-04T12:51:04.722Z,12.97
2018-09-04T12:53:34.216Z,13.87
2018-09-04T12:56:03.201Z,13.67
2018-09-04T12:58:32.122Z,13.90
2018-09-04T13:01:01.046Z,13.87
2018-09-04T13:03:30.170Z,13.67
2018-09-04T13:05:59.109Z,14.77
2018-09-04T13:08:30.337Z,14.00
2018-09-04T13:10:59.245Z,14.37
2018-09-04T13:13:28.235Z,14.23
2018-09-04T13:15:58.803Z,12.60
2018-09-04T13:18:28.285Z,13.20
2018-09-04T13:21:01.166Z,13.37
2018-09-04T13:23:30.979Z,12.40
2018-09-04T13:25:59.937Z,12.57
2018-09-04T13:28:29.344Z,13.40
2018-09-04T13:30:58.296Z,13.47
2018-09-04T13:33:27.183Z,12.50
2018-09-04T13:35:56.082Z,14.23
2018-09-04T13:38:24.974Z,15.27
2018-09-04T13:40:59.275Z,14.67
2018-09-04T13:43:28.178Z,15.07
2018-09-04T13:45:57.113Z,14.80
2018-09-04T13:48:27.801Z,14.73
2018-09-04T13:50:56.990Z,15.53
2018-09-04T13:53:26.355Z,14.90
2018-09-04T13:55:55.337Z,14.07
2018-09-04T13:58:24.238Z,16.60
2018-09-04T14:00:53.133Z,14.83
2018-09-04T14:03:22.228Z,16.20
2018-09-04T14:05:51.101Z,15.70
2018-09-04T14:08:19.986Z,16.20
2018-09-04T14:10:48.877Z,17.10
2018-09-04T14:13:17.810Z,15.53
2018-09-04T14:15:46.734Z,14.60
2018-09-04T14:18:15.622Z,15.10
2018-09-04T14:20:44.582Z,14.47
2018-09-04T14:23:13.564Z,15.67
2018-09-04T14:25:42.422Z,15.60
2018-09-04T14:28:11.447Z,15.13
2018-09-04T14:30:40.406Z,15.00
2018-09-04T14:33:09.209Z,13.90
2018-09-04T14:35:38.114Z,14.80
2018-09-04T14:38:07.074Z,14.60
2018-09-04T14:40:36.730Z,15.23
2018-09-04T14:43:05.902Z,15.00
2018-09-04T14:45:35.443Z,13.63
2018-09-04T14:48:04.728Z,15.03
2018-09-04T14:50:33.783Z,16.57
2018-09-04T14:53:02.726Z,14.30
2018-09-04T14:55:31.642Z,15.13
2018-09-04T14:58:00.542Z,14.33
2018-09-04T15:00:29.467Z,14.93
2018-09-04T15:02:58.339Z,13.73
2018-09-04T15:05:27.220Z,13.57
2018-09-04T15:07:56.103Z,14.50
2018-09-04T15:10:24.990Z,14.47
2018-09-04T15:12:53.858Z,14.60
2018-09-04T15:15:22.773Z,14.03
2018-09-04T15:17:51.654Z,12.90
2018-09-04T15:20:20.554Z,14.03
2018-09-04T15:22:49.490Z,15.10
2018-09-04T15:25:18.499Z,14.17
2018-09-04T15:27:47.497Z,14.50
2018-09-04T15:30:16.539Z,13.47
2018-09-04T15:32:45.646Z,14.90
2018-09-04T15:35:14.580Z,13.80
2018-09-04T15:37:43.458Z,13.97
2018-09-04T15:40:12.338Z,14.13
2018-09-04T15:42:41.304Z,14.87
2018-09-04T15:45:10.135Z,14.47
2018-09-04T15:47:39.074Z,13.90
2018-09-04T15:50:07.971Z,15.83
2018-09-04T15:52:36.858Z,14.37
2018-09-04T15:55:05.877Z,13.20
2018-09-04T15:57:34.802Z,13.50
2018-09-04T16:00:03.995Z,13.10
2018-09-04T16:02:32.917Z,13.07
2018-09-04T16:05:01.822Z,12.60
2018-09-04T16:07:30.718Z,13.20
2018-09-04T16:09:59.721Z,14.27
2018-09-04T16:12:28.510Z,14.20
2018-09-04T16:14:57.400Z,14.53
2018-09-04T16:17:26.478Z,15.80
2018-09-04T16:19:55.378Z,13.60
2018-09-04T16:22:24.322Z,14.27
2018-09-04T16:24:53.203Z,14.17
2018-09-04T16:27:22.101Z,13.00
2018-09-04T16:29:50.982Z,14.03
2018-09-04T16:32:19.967Z,14.00
2018-09-04T16:34:48.988Z,15.50
2018-09-04T16:37:17.787Z,11.70
2018-09-04T16:39:46.726Z,14.20
2018-09-04T16:42:15.643Z,13.70
2018-09-04T16:44:44.678Z,14.30
2018-09-04T16:47:13.568Z,14.87
2018-09-04T16:49:42.465Z,14.10
2018-09-04T16:52:11.485Z,12.80
2018-09-04T16:54:40.415Z,14.47
2018-09-04T16:57:09.314Z,14.07
2018-09-04T16:59:38.232Z,13.57
2018-09-04T17:02:07.120Z,14.93
2018-09-04T17:04:36.064Z,14.60
2018-09-04T17:07:05.283Z,14.60
2018-09-04T17:09:34.194Z,14.80
2018-09-04T17:12:03.100Z,12.77
2018-09-04T17:14:32.011Z,13.80
2018-09-04T17:17:01.145Z,13.13
2018-09-04T17:19:30.083Z,13.10
2018-09-04T17:21:58.998Z,13.50
2018-09-04T17:24:27.887Z,13.97
2018-09-04T17:26:56.782Z,12.60
2018-09-04T17:29:25.713Z,13.50
2018-09-04T17:31:54.635Z,14.07
2018-09-04T17:34:23.523Z,14.10
2018-09-04T17:36:52.442Z,13.27
2018-09-04T17:39:21.431Z,14.13
2018-09-04T17:41:50.316Z,13.23
2018-09-04T17:44:19.197Z,13.93
2018-09-04T17:46:48.162Z,13.93
2018-09-04T17:49:17.026Z,13.10
2018-09-04T17:51:45.966Z,14.03
2018-09-04T17:54:14.845Z,13.20
2018-09-04T17:56:43.721Z,12.20
2018-09-04T17:59:12.603Z,14.40
2018-09-04T18:01:41.503Z,13.40
2018-09-04T18:04:10.473Z,13.40
2018-09-04T18:06:39.474Z,13.90
2018-09-04T18:09:08.666Z,12.73
2018-09-04T18:11:37.623Z,12.80
2018-09-04T18:14:07.647Z,14.13
2018-09-04T18:16:36.551Z,12.90
2018-09-04T18:19:05.566Z,13.80
2018-09-04T18:21:34.522Z,13.40
2018-09-04T18:24:03.479Z,13.57
2018-09-04T18:26:32.374Z,11.90
2018-09-04T18:29:01.246Z,14.03
2018-09-04T18:31:30.158Z,12.87
2018-09-04T18:33:59.118Z,12.80
2018-09-04T18:36:28.023Z,12.80
2018-09-04T18:38:56.943Z,12.80
2018-09-04T18:41:25.844Z,15.30
2018-09-04T18:43:54.715Z,13.90
2018-09-04T18:46:23.610Z,13.77
2018-09-04T18:48:54.759Z,13.10
2018-09-04T18:51:24.423Z,13.37
2018-09-04T18:53:53.299Z,13.23
2018-09-04T18:56:22.202Z,13.57
2018-09-04T18:58:51.100Z,12.93
2018-09-04T19:01:20.022Z,13.10
2018-09-04T19:03:48.903Z,14.30
2018-09-04T19:06:17.797Z,13.50
2018-09-04T19:08:46.686Z,12.80
2018-09-04T19:11:16.660Z,13.03
2018-09-04T19:13:45.541Z,13.70
2018-09-04T19:16:14.429Z,15.30
2018-09-04T19:18:43.326Z,13.10
2018-09-04T19:21:12.251Z,14.77
2018-09-04T19:23:41.154Z,14.23
2018-09-04T19:26:10.077Z,14.53
2018-09-04T19:28:38.968Z,14.43
2018-09-04T19:31:07.886Z,14.30
2018-09-04T19:33:36.778Z,12.40
2018-09-04T19:36:05.722Z,13.60
2018-09-04T19:38:34.654Z,14.30
2018-09-04T19:41:03.552Z,14.60
2018-09-04T19:43:32.554Z,13.53
2018-09-04T19:46:01.470Z,13.80
2018-09-04T19:48:30.405Z,13.43
2018-09-04T19:50:59.338Z,13.20
2018-09-04T19:53:28.251Z,13.10
2018-09-04T19:55:57.162Z,13.10
2018-09-04T19:58:26.076Z,12.17
2018-09-04T20:00:55.043Z,13.83
2018-09-04T20:03:23.918Z,13.27
2018-09-04T20:05:52.795Z,12.93
2018-09-04T20:08:21.800Z,11.87
2018-09-04T20:10:50.993Z,13.33
2018-09-04T20:13:20.028Z,13.27
2018-09-04T20:15:48.766Z,13.27
2018-09-04T20:18:17.654Z,12.10
2018-09-04T20:20:46.543Z,12.87
2018-09-04T20:23:15.443Z,13.50
2018-09-04T20:25:44.402Z,12.50
2018-09-04T20:28:13.406Z,13.70
2018-09-04T20:30:42.332Z,12.50
2018-09-04T20:33:11.279Z,12.33
2018-09-04T20:35:40.225Z,14.60
2018-09-04T20:38:09.194Z,14.93
2018-09-04T20:40:38.170Z,13.10
2018-09-04T20:43:07.190Z,12.67
2018-09-04T20:45:36.142Z,13.03
2018-09-04T20:48:05.586Z,13.37
2018-09-04T20:50:34.576Z,13.13
2018-09-04T20:53:03.617Z,13.30
2018-09-04T20:55:32.589Z,13.37
2018-09-04T20:58:12.974Z,13.50
2018-09-04T21:00:53.114Z,12.97
2018-09-04T21:03:33.222Z,13.67
2018-09-04T21:06:13.418Z,13.97
2018-09-04T21:08:53.974Z,14.70
2018-09-04T21:11:22.885Z,14.33
2018-09-04T21:13:51.784Z,15.33
2018-09-04T21:16:20.690Z,13.47
2018-09-04T21:18:49.620Z,12.70
2018-09-04T21:21:18.658Z,14.73
2018-09-04T21:23:47.635Z,15.07
2018-09-04T21:26:16.583Z,13.60
2018-09-04T21:28:45.558Z,14.90
2018-09-04T21:31:14.642Z,14.10
2018-09-04T21:33:43.621Z,14.30
2018-09-04T21:36:12.554Z,14.03
2018-09-04T21:38:41.641Z,14.17
2018-09-04T21:41:10.550Z,13.40
2018-09-04T21:43:39.495Z,16.07
2018-09-04T21:46:08.474Z,14.65
2018-09-04T21:48:37.799Z,15.38
2018-09-04T21:51:06.874Z,14.00
2018-09-04T21:53:35.838Z,13.93
2018-09-04T21:56:05.189Z,14.90
2018-09-04T21:58:34.286Z,13.37
2018-09-04T22:01:03.403Z,15.33
2018-09-04T22:03:32.289Z,15.57
2018-09-04T22:06:01.193Z,15.50
2018-09-04T22:08:30.086Z,16.40
2018-09-04T22:10:58.994Z,16.55
2018-09-04T22:13:27.937Z,15.08
2018-09-04T22:15:56.846Z,18.45
2018-09-04T22:18:25.754Z,14.68
2018-09-04T22:20:54.657Z,16.30
2018-09-04T22:23:23.570Z,16.70
2018-09-04T22:25:52.590Z,16.05
2018-09-04T22:28:21.508Z,16.27
2018-09-04T22:30:50.390Z,14.75
2018-09-04T22:33:19.286Z,15.72
2018-09-04T22:35:48.190Z,15.23
2018-09-04T22:38:17.084Z,14.40
2018-09-04T22:40:45.974Z,15.68
2018-09-04T22:43:14.866Z,16.20
2018-09-04T22:45:43.778Z,15.72
2018-09-04T22:48:12.682Z,16.27
2018-09-04T22:50:46.955Z,15.60
2018-09-04T22:53:15.850Z,16.05
2018-09-04T22:55:44.762Z,16.73
2018-09-04T22:58:13.694Z,15.77
2018-09-04T23:00:42.586Z,16.40
2018-09-04T23:03:11.510Z,15.85
2018-09-04T23:05:40.422Z,16.73
2018-09-04T23:08:09.386Z,16.43
2018-09-04T23:10:38.286Z,15.78
2018-09-04T23:13:07.183Z,15.70
2018-09-04T23:15:41.459Z,16.77
2018-09-04T23:18:10.477Z,16.42
2018-09-04T23:20:39.386Z,17.10
2018-09-04T23:23:08.314Z,17.52
2018-09-04T23:25:37.384Z,16.05
2018-09-04T23:28:06.697Z,16.37
2018-09-04T23:30:35.614Z,18.40
2018-09-04T23:33:04.565Z,17.52
2018-09-04T23:35:33.456Z,16.62
2018-09-04T23:38:02.354Z,16.12
2018-09-04T23:40:31.239Z,16.35
2018-09-04T23:43:00.170Z,18.10
2018-09-04T23:45:29.057Z,16.20
2018-09-04T23:47:57.969Z,16.32
2018-09-04T23:50:27.157Z,17.95
2018-09-04T23:52:56.070Z,17.40
2018-09-04T23:55:24.962Z,16.37
2018-09-04T23:57:53.862Z,17.98
